Time;durP1;ratioP1;P1;durP2;ratioP2;P2;SDS_P1;SDS_P2;PMS_P1;PMS_P2;Temp;Humidity;BMP_temperature;BMP_pressure;BME280_temperature;BME280_humidity;BME280_pressure;Samples;Min_cycle;Max_cycle;Signal;HPM_P1;HPM_P2
2022/05/30 00:02:15;;;;;;;1.93;1.43;;;;;;;11.92;97.14;100510.22;5035112;28;20447;-69
2022/05/30 00:04:42;;;;;;;2.90;1.43;;;;;;;11.88;95.85;100498.38;5035286;28;20450;-68
2022/05/30 00:07:08;;;;;;;1.80;1.50;;;;;;;11.82;95.46;100501.22;5035259;28;20497;-68
2022/05/30 00:09:36;;;;;;;1.80;1.10;;;;;;;11.77;94.99;100497.78;5034750;28;20844;-68
2022/05/30 00:12:03;;;;;;;1.80;1.23;;;;;;;11.67;95.98;100496.13;5035110;28;20854;-68
2022/05/30 00:14:30;;;;;;;2.80;1.60;;;;;;;11.69;97.38;100499.34;5035105;28;20510;-68
2022/05/30 00:16:57;;;;;;;2.23;1.50;;;;;;;11.70;98.22;100495.53;5034960;28;20447;-69
2022/05/30 00:19:25;;;;;;;2.23;1.40;;;;;;;11.71;98.84;100488.19;5035028;28;20475;-69
2022/05/30 00:21:52;;;;;;;1.60;1.07;;;;;;;11.69;99.56;100502.06;5035015;28;20451;-69
2022/05/30 00:24:18;;;;;;;1.20;1.03;;;;;;;11.70;99.94;100502.88;5035007;28;20545;-69
2022/05/30 00:26:45;;;;;;;3.10;1.50;;;;;;;11.68;99.80;100503.16;5034851;28;20443;-69
2022/05/30 00:29:11;;;;;;;1.53;1.27;;;;;;;11.70;99.85;100509.09;5034685;28;20467;-68
2022/05/30 00:31:38;;;;;;;1.10;0.77;;;;;;;11.67;99.96;100504.28;5034754;28;20443;-68
2022/05/30 00:34:05;;;;;;;1.40;1.00;;;;;;;11.65;99.97;100511.16;5034780;28;20448;-68
2022/05/30 00:36:33;;;;;;;1.50;1.00;;;;;;;11.61;100.00;100508.25;5034671;28;20458;-69
2022/05/30 00:38:59;;;;;;;1.33;1.10;;;;;;;11.60;100.00;100509.34;5034526;28;20458;-67
2022/05/30 00:41:26;;;;;;;2.30;1.20;;;;;;;11.60;100.00;100510.16;5034679;28;20440;-69
2022/05/30 00:43:53;;;;;;;1.00;0.63;;;;;;;11.61;100.00;100510.97;5034683;28;20502;-69
2022/05/30 00:46:19;;;;;;;2.40;1.57;;;;;;;11.55;100.00;100523.03;5034198;28;20850;-68
2022/05/30 00:48:50;;;;;;;3.17;1.13;;;;;;;11.59;100.00;100521.28;5034458;28;20467;-68
2022/05/30 00:51:19;;;;;;;2.87;1.87;;;;;;;11.59;100.00;100519.38;5034311;28;20501;-68
2022/05/30 00:53:49;;;;;;;1.53;0.97;;;;;;;11.62;99.89;100518.78;5034146;28;20936;-68
2022/05/30 00:56:16;;;;;;;2.20;1.20;;;;;;;11.59;98.47;100510.44;5034381;28;20428;-70
2022/05/30 00:58:50;;;;;;;2.40;1.33;;;;;;;11.59;98.04;100513.97;5035382;28;21023;-70
2022/05/30 01:01:18;;;;;;;1.80;1.30;;;;;;;11.59;98.31;100513.16;5034304;28;20431;-68
2022/05/30 01:06:33;;;;;;;2.93;1.30;;;;;;;11.65;99.96;100514.66;5034103;28;20403;-69
2022/05/30 01:09:06;;;;;;;2.13;1.17;;;;;;;11.69;99.96;100512.13;5034135;28;20467;-66
2022/05/30 01:11:51;;;;;;;3.30;0.93;;;;;;;11.74;100.00;100515.50;5034389;28;20463;-68
2022/05/30 01:14:18;;;;;;;5.23;1.37;;;;;;;11.80;100.00;100508.81;5034286;28;20855;-68
2022/05/30 01:16:44;;;;;;;1.87;1.53;;;;;;;11.83;100.00;100512.88;5033948;28;20773;-68
2022/05/30 01:19:20;;;;;;;2.60;1.03;;;;;;;11.86;100.00;100512.22;5033873;28;20459;-68
2022/05/30 01:22:04;;;;;;;1.83;1.40;;;;;;;11.87;100.00;100519.28;5033667;28;20924;-69
2022/05/30 01:24:43;;;;;;;2.47;1.10;;;;;;;11.88;100.00;100515.44;5033907;28;20430;-68
2022/05/30 01:27:22;;;;;;;2.13;1.23;;;;;;;11.91;100.00;100514.00;5033452;28;20427;-68
2022/05/30 01:29:53;;;;;;;2.17;1.30;;;;;;;11.91;98.55;100512.13;5033068;28;20486;-70
2022/05/30 01:32:21;;;;;;;2.40;1.60;;;;;;;11.90;98.06;100517.84;5033736;28;20446;-70
2022/05/30 01:34:48;;;;;;;1.80;1.30;;;;;;;11.80;97.73;100516.97;5033947;28;20475;-70
2022/05/30 01:37:14;;;;;;;2.07;1.20;;;;;;;11.76;97.27;100524.13;5033419;28;20446;-68
2022/05/30 01:39:41;;;;;;;2.63;1.77;;;;;;;11.80;96.41;100518.88;5033294;28;20447;-69
2022/05/30 01:42:08;;;;;;;3.47;1.17;;;;;;;11.77;96.10;100509.44;5033246;28;20983;-68
2022/05/30 01:44:34;;;;;;;2.83;1.37;;;;;;;11.77;95.87;100514.88;5033557;28;20443;-68
2022/05/30 01:47:02;;;;;;;7.77;1.90;;;;;;;11.79;96.34;100509.94;5033454;28;20454;-67
2022/05/30 01:49:29;;;;;;;1.10;0.93;;;;;;;11.83;97.36;100508.25;5033437;28;20462;-68
2022/05/30 01:51:56;;;;;;;1.83;1.37;;;;;;;11.86;98.07;100507.63;5033462;28;20482;-70
2022/05/30 01:54:23;;;;;;;2.10;1.07;;;;;;;11.88;98.54;100514.66;5033564;28;20508;-67
2022/05/30 01:56:49;;;;;;;1.60;0.93;;;;;;;11.88;98.86;100506.50;5033589;28;20447;-68
2022/05/30 01:59:16;;;;;;;3.20;1.40;;;;;;;11.91;98.69;100517.56;5033271;28;20474;-68
2022/05/30 02:01:44;;;;;;;1.50;1.03;;;;;;;11.94;98.79;100514.19;5033535;28;20472;-68
2022/05/30 02:04:12;;;;;;;1.93;1.30;;;;;;;11.94;98.80;100521.53;5033042;28;20483;-68
2022/05/30 02:06:39;;;;;;;2.40;1.00;;;;;;;11.90;98.62;100512.41;5033339;28;20454;-68
2022/05/30 02:09:06;;;;;;;9.03;1.57;;;;;;;11.90;98.85;100509.69;5033565;28;20475;-70
2022/05/30 02:11:33;;;;;;;1.73;1.40;;;;;;;11.89;99.08;100510.81;5033315;28;20490;-68
2022/05/30 02:13:59;;;;;;;2.03;1.20;;;;;;;11.91;99.69;100508.59;5033205;28;20442;-68
2022/05/30 02:19:10;;;;;;;2.70;1.60;;;;;;;11.93;99.32;100509.09;5033242;28;20882;-68
2022/05/30 02:21:38;;;;;;;2.23;1.40;;;;;;;11.85;98.94;100506.00;5033199;28;20482;-68
2022/05/30 02:24:06;;;;;;;2.93;1.57;;;;;;;11.84;98.96;100509.03;5033100;28;20446;-68
2022/05/30 02:26:35;;;;;;;4.53;1.33;;;;;;;11.77;98.96;100514.06;5033351;28;20501;-68
2022/05/30 02:29:02;;;;;;;1.60;1.43;;;;;;;11.73;99.30;100519.34;5032661;28;20984;-67
2022/05/30 02:31:28;;;;;;;1.80;1.40;;;;;;;11.73;99.73;100515.78;5033002;28;20518;-67
2022/05/30 02:36:40;;;;;;;3.70;1.60;;;;;;;11.63;100.00;100514.94;5033160;28;20434;-67
2022/05/30 02:39:07;;;;;;;3.23;1.63;;;;;;;11.61;100.00;100511.75;5032668;28;20466;-68
2022/05/30 02:41:33;;;;;;;2.60;1.40;;;;;;;11.59;100.00;100513.16;5036621;28;20959;-68
2022/05/30 02:44:00;;;;;;;3.83;1.97;;;;;;;11.58;100.00;100514.28;5036510;28;20932;-67
2022/05/30 02:46:27;;;;;;;2.40;1.87;;;;;;;11.52;100.00;100510.91;5036505;28;20944;-68
2022/05/30 02:48:53;;;;;;;1.83;1.37;;;;;;;11.52;100.00;100512.81;5036629;28;20466;-69
2022/05/30 02:51:19;;;;;;;1.93;1.30;;;;;;;11.49;100.00;100516.13;5036350;28;20487;-68
2022/05/30 02:53:47;;;;;;;2.60;1.73;;;;;;;11.40;100.00;100505.22;5036827;28;20439;-68
2022/05/30 02:56:15;;;;;;;2.70;1.50;;;;;;;11.37;100.00;100514.75;5036735;28;20446;-68
2022/05/30 02:58:42;;;;;;;3.10;1.60;;;;;;;11.35;100.00;100517.00;5036337;28;20479;-69
2022/05/30 03:01:09;;;;;;;1.70;1.30;;;;;;;11.29;100.00;100510.09;5036526;28;20468;-68
2022/05/30 03:03:36;;;;;;;3.33;1.73;;;;;;;11.26;100.00;100523.47;5036540;28;20458;-68
2022/05/30 03:06:03;;;;;;;1.83;1.53;;;;;;;11.19;100.00;100523.06;5036493;28;20447;-67
2022/05/30 03:08:29;;;;;;;2.70;2.40;;;;;;;11.20;100.00;100522.78;5036063;28;20877;-68
2022/05/30 03:10:57;;;;;;;2.60;1.83;;;;;;;11.21;100.00;100529.81;5036388;28;20493;-69
2022/05/30 03:13:24;;;;;;;2.47;1.57;;;;;;;11.25;100.00;100525.38;5036303;28;20434;-67
2022/05/30 03:15:50;;;;;;;2.40;1.67;;;;;;;11.19;100.00;100521.16;5036226;28;20807;-69
2022/05/30 03:18:17;;;;;;;2.27;1.87;;;;;;;11.21;100.00;100527.09;5036348;28;20463;-68
2022/05/30 03:20:43;;;;;;;2.43;1.50;;;;;;;11.21;100.00;100529.81;5036129;28;20443;-68
2022/05/30 03:23:10;;;;;;;5.87;2.37;;;;;;;11.15;100.00;100530.22;5035814;28;20443;-68
2022/05/30 03:25:36;;;;;;;5.43;1.93;;;;;;;11.16;100.00;100529.13;5035768;28;20817;-68
2022/05/30 03:28:05;;;;;;;2.30;1.87;;;;;;;11.15;100.00;100531.00;5036001;28;20447;-68
2022/05/30 03:30:36;;;;;;;4.27;2.37;;;;;;;11.15;100.00;100538.34;5035904;28;20479;-68
2022/05/30 03:33:03;;;;;;;4.17;1.93;;;;;;;11.16;100.00;100542.69;5036002;28;20467;-68
2022/05/30 03:35:29;;;;;;;4.73;2.63;;;;;;;11.14;100.00;100539.47;5035851;28;20525;-68
2022/05/30 03:37:56;;;;;;;5.20;2.53;;;;;;;11.07;100.00;100543.41;5035842;28;20466;-69
2022/05/30 03:40:22;;;;;;;4.23;2.00;;;;;;;11.03;100.00;100538.91;5035590;28;20451;-68
2022/05/30 03:42:49;;;;;;;3.10;2.23;;;;;;;11.07;100.00;100542.59;5035801;28;20469;-68
2022/05/30 03:45:16;;;;;;;13.63;2.83;;;;;;;11.04;100.00;100540.50;5035475;28;20454;-68
2022/05/30 03:47:45;;;;;;;4.70;2.43;;;;;;;11.10;100.00;100547.41;5035666;28;20438;-68
2022/05/30 03:50:15;;;;;;;3.00;1.60;;;;;;;11.11;100.00;100549.00;5035523;28;20447;-68
2022/05/30 03:52:41;;;;;;;3.17;1.77;;;;;;;11.12;100.00;100542.50;5035035;28;20451;-68
2022/05/30 03:55:11;;;;;;;2.50;1.80;;;;;;;11.17;100.00;100541.56;5035275;28;20502;-70
2022/05/30 03:57:39;;;;;;;4.33;2.30;;;;;;;11.16;100.00;100543.47;5035568;28;20452;-69
2022/05/30 04:00:07;;;;;;;4.50;2.40;;;;;;;11.11;100.00;100546.28;5035226;28;20996;-69
2022/05/30 04:02:35;;;;;;;9.30;1.90;;;;;;;11.13;100.00;100551.41;5035580;28;20446;-66
2022/05/30 04:05:01;;;;;;;3.30;2.37;;;;;;;11.13;100.00;100549.50;5035681;28;20439;-69
2022/05/30 04:07:28;;;;;;;6.50;2.70;;;;;;;11.14;100.00;100548.41;5035549;28;20802;-69
2022/05/30 04:09:54;;;;;;;4.83;2.40;;;;;;;11.18;100.00;100554.00;5035214;28;20459;-69
2022/05/30 04:12:21;;;;;;;5.10;2.20;;;;;;;11.17;100.00;100549.69;5035452;28;20482;-68
2022/05/30 04:14:54;;;;;;;4.23;1.73;;;;;;;11.17;100.00;100542.38;5035359;28;20454;-68
2022/05/30 04:17:20;;;;;;;4.47;2.57;;;;;;;11.15;100.00;100550.00;5035102;28;20444;-69
2022/05/30 04:19:48;;;;;;;3.67;2.27;;;;;;;11.13;100.00;100554.13;5035223;28;20864;-69
2022/05/30 04:22:15;;;;;;;3.70;2.20;;;;;;;11.13;100.00;100548.72;5034973;28;20783;-67
2022/05/30 04:24:42;;;;;;;5.50;2.17;;;;;;;11.18;100.00;100554.81;5035029;28;20489;-69
2022/05/30 04:27:08;;;;;;;2.80;1.83;;;;;;;11.23;100.00;100562.81;5034695;28;21016;-68
2022/05/30 04:29:35;;;;;;;9.63;2.57;;;;;;;11.29;100.00;100567.03;5034930;28;20471;-69
2022/05/30 04:32:02;;;;;;;5.33;2.60;;;;;;;11.33;100.00;100561.78;5034853;28;20479;-68
2022/05/30 04:34:29;;;;;;;3.77;2.10;;;;;;;11.28;100.00;100560.00;5034814;28;20447;-68
2022/05/30 04:36:57;;;;;;;4.10;2.10;;;;;;;11.26;100.00;100558.72;5034432;28;20454;-70
2022/05/30 04:39:24;;;;;;;5.53;2.60;;;;;;;11.33;100.00;100559.91;5034685;28;20470;-68
2022/05/30 04:41:50;;;;;;;5.13;2.77;;;;;;;11.40;100.00;100555.94;5034683;28;20489;-69
2022/05/30 04:44:17;;;;;;;3.60;2.10;;;;;;;11.46;100.00;100552.00;5034665;28;20451;-68
2022/05/30 04:46:51;;;;;;;2.40;1.60;;;;;;;11.48;100.00;100566.88;5034657;28;20542;-69
2022/05/30 04:49:17;;;;;;;2.93;1.87;;;;;;;11.55;100.00;100566.44;5034452;28;20462;-68
2022/05/30 04:51:44;;;;;;;6.40;1.97;;;;;;;11.61;100.00;100559.78;5034779;28;20957;-75
2022/05/30 04:54:11;;;;;;;4.13;2.30;;;;;;;11.66;100.00;100564.28;5034319;28;20459;-71
2022/05/30 04:56:38;;;;;;;6.83;2.07;;;;;;;11.69;100.00;100564.47;5034856;28;20848;-67
2022/05/30 04:59:06;;;;;;;4.60;2.10;;;;;;;11.68;99.95;100562.06;5033844;28;20478;-66
2022/05/30 05:01:32;;;;;;;3.67;2.57;;;;;;;11.74;100.00;100563.56;5034384;28;20493;-66
2022/05/30 05:03:59;;;;;;;1.97;1.57;;;;;;;11.76;98.99;100566.75;5033441;28;20450;-66
2022/05/30 05:06:26;;;;;;;2.57;1.40;;;;;;;11.74;99.13;100569.78;5034265;28;20435;-67
2022/05/30 05:08:59;;;;;;;3.90;1.53;;;;;;;11.75;98.83;100567.88;5034189;28;20451;-67
2022/05/30 05:11:28;;;;;;;3.63;2.30;;;;;;;11.70;98.26;100574.22;5034099;28;20532;-67
2022/05/30 05:13:56;;;;;;;3.90;2.07;;;;;;;11.65;98.51;100571.63;5033954;28;20945;-67
2022/05/30 05:16:25;;;;;;;3.60;2.30;;;;;;;11.81;97.29;100569.31;5034139;28;20451;-68
2022/05/30 05:18:52;;;;;;;3.20;1.80;;;;;;;11.98;98.04;100574.09;5033992;28;20467;-67
2022/05/30 05:21:21;;;;;;;4.50;2.43;;;;;;;12.07;95.89;100573.03;5033997;28;20811;-67
2022/05/30 05:23:48;;;;;;;3.57;2.20;;;;;;;12.06;94.67;100579.56;5033905;28;20797;-69
2022/05/30 05:26:15;;;;;;;6.73;2.40;;;;;;;12.04;95.91;100581.81;5033754;28;20451;-68
2022/05/30 05:28:43;;;;;;;5.97;2.17;;;;;;;11.93;93.93;100585.09;5033708;28;20467;-68
2022/05/30 05:31:12;;;;;;;4.73;2.07;;;;;;;11.99;93.97;100581.13;5033979;28;20541;-69
2022/05/30 05:33:39;;;;;;;4.43;1.80;;;;;;;11.95;94.51;100585.56;5033755;28;20443;-68
2022/05/30 05:36:06;;;;;;;4.33;2.50;;;;;;;11.85;93.95;100583.91;5033723;28;20446;-68
2022/05/30 05:38:32;;;;;;;23.87;2.37;;;;;;;11.79;94.00;100594.06;5033445;28;20467;-69
2022/05/30 05:40:59;;;;;;;2.27;1.77;;;;;;;11.83;94.00;100588.88;5033422;28;20435;-69
2022/05/30 05:43:25;;;;;;;2.03;1.43;;;;;;;11.78;93.19;100587.03;5033915;28;20455;-69
2022/05/30 05:45:53;;;;;;;2.37;1.50;;;;;;;11.73;93.16;100594.50;5033501;28;20451;-70
2022/05/30 05:48:19;;;;;;;3.50;1.93;;;;;;;11.67;93.08;100590.31;5033146;28;20866;-68
2022/05/30 05:50:46;;;;;;;3.40;2.13;;;;;;;11.66;94.42;100592.22;5033455;28;20446;-68
2022/05/30 05:53:13;;;;;;;9.77;2.50;;;;;;;11.68;94.61;100595.41;5033402;28;20493;-68
2022/05/30 05:55:39;;;;;;;1.60;1.40;;;;;;;11.76;95.08;100593.88;5033201;28;20949;-68
2022/05/30 05:58:06;;;;;;;8.40;2.07;;;;;;;11.83;95.15;100605.94;5033105;28;20439;-68
2022/05/30 06:00:33;;;;;;;3.93;2.63;;;;;;;11.79;93.22;100604.13;5033487;28;20423;-70
2022/05/30 06:03:01;;;;;;;4.27;2.63;;;;;;;11.74;92.59;100601.53;5033365;28;20435;-68
2022/05/30 06:05:30;;;;;;;3.90;2.00;;;;;;;11.69;92.68;100599.75;5033354;28;20453;-69
2022/05/30 06:07:59;;;;;;;6.43;2.30;;;;;;;11.65;92.16;100603.38;5033290;28;20474;-68
2022/05/30 06:10:25;;;;;;;4.10;1.90;;;;;;;11.63;93.51;100612.63;5033423;28;20451;-67
2022/05/30 06:12:52;;;;;;;13.20;1.93;;;;;;;11.58;93.23;100609.22;5033438;28;20479;-68
2022/05/30 06:15:20;;;;;;;2.53;2.33;;;;;;;11.54;93.18;100609.03;5033047;28;20447;-68
2022/05/30 06:17:47;;;;;;;4.90;2.10;;;;;;;11.59;94.18;100603.47;5032892;28;20932;-68
2022/05/30 06:20:17;;;;;;;5.43;2.53;;;;;;;11.72;93.69;100599.13;5033199;28;20523;-69
2022/05/30 06:22:44;;;;;;;12.30;2.40;;;;;;;11.81;93.63;100602.69;5033369;28;20439;-69
2022/05/30 06:25:10;;;;;;;4.40;2.63;;;;;;;12.00;92.67;100596.31;5033056;28;20443;-68
2022/05/30 06:27:37;;;;;;;2.17;1.77;;;;;;;12.17;91.94;100598.31;5032934;28;20447;-68
2022/05/30 06:30:04;;;;;;;5.27;2.60;;;;;;;12.31;93.24;100605.28;5033928;28;20492;-69
2022/05/30 06:32:31;;;;;;;2.70;1.90;;;;;;;12.41;91.73;100614.28;5033694;28;20540;-69
2022/05/30 06:34:57;;;;;;;3.00;1.60;;;;;;;12.35;90.40;100611.69;5033072;28;20826;-66
2022/05/30 06:37:25;;;;;;;5.10;2.83;;;;;;;12.35;89.20;100616.28;5033040;28;20451;-69
2022/05/30 06:39:52;;;;;;;2.40;1.60;;;;;;;12.50;89.48;100613.19;5032991;28;20467;-68
2022/05/30 06:42:18;;;;;;;3.50;1.93;;;;;;;12.61;88.96;100613.69;5033007;28;20466;-69
2022/05/30 06:44:45;;;;;;;4.90;2.63;;;;;;;12.62;89.14;100624.28;5032922;28;20443;-69
2022/05/30 06:47:12;;;;;;;4.50;2.90;;;;;;;12.59;89.27;100621.38;5032862;28;20479;-68
2022/05/30 06:49:39;;;;;;;3.37;2.03;;;;;;;12.34;88.34;100617.41;5032791;28;20562;-69
2022/05/30 06:52:05;;;;;;;4.13;2.30;;;;;;;12.28;89.89;100622.19;5032780;28;20482;-68
2022/05/30 06:54:33;;;;;;;3.47;2.17;;;;;;;12.35;89.57;100624.44;5032823;28;20443;-69
2022/05/30 06:59:44;;;;;;;5.20;2.23;;;;;;;12.65;87.84;100625.56;5059462;22;20458;-67
2022/05/30 07:02:10;;;;;;;7.27;2.37;;;;;;;12.65;87.13;100622.84;5032978;28;20450;-65
2022/05/30 07:04:37;;;;;;;1.87;1.47;;;;;;;12.55;87.33;100626.63;5032993;28;20450;-67
2022/05/30 07:07:05;;;;;;;3.43;1.50;;;;;;;12.52;85.97;100627.25;5032961;28;20455;-66
2022/05/30 07:09:32;;;;;;;4.70;2.40;;;;;;;12.57;86.09;100621.69;5032790;28;20864;-69
2022/05/30 07:11:59;;;;;;;3.13;2.00;;;;;;;12.61;84.72;100628.09;5032648;28;20494;-62
2022/05/30 07:14:26;;;;;;;4.73;2.00;;;;;;;12.60;84.62;100634.66;5032865;28;20856;-64
2022/05/30 07:16:52;;;;;;;5.53;2.57;;;;;;;12.62;84.61;100637.06;5032776;28;20453;-65
2022/05/30 07:19:19;;;;;;;4.23;2.17;;;;;;;12.57;84.99;100629.84;5032703;28;20446;-66
2022/05/30 07:21:46;;;;;;;3.40;1.97;;;;;;;12.67;85.66;100628.78;5032563;28;20482;-66
2022/05/30 07:24:13;;;;;;;6.47;2.30;;;;;;;12.51;85.59;100635.72;5032444;28;21023;-64
2022/05/30 07:26:40;;;;;;;4.60;2.10;;;;;;;12.53;87.04;100633.50;5033571;28;20439;-67
2022/05/30 07:29:09;;;;;;;5.30;2.47;;;;;;;12.74;87.23;100644.59;5036167;28;20817;-67
2022/05/30 07:31:35;;;;;;;3.20;2.37;;;;;;;12.74;83.64;100639.97;5036314;28;20502;-67
2022/05/30 07:34:01;;;;;;;4.43;2.30;;;;;;;12.54;82.44;100640.53;5036198;28;20439;-70
2022/05/30 07:36:31;;;;;;;4.93;2.20;;;;;;;12.43;82.86;100637.28;5036016;28;20451;-67
2022/05/30 07:38:58;;;;;;;4.20;1.97;;;;;;;12.43;83.36;100642.72;5036155;28;20449;-68
2022/05/30 07:41:27;;;;;;;6.43;2.33;;;;;;;12.37;84.08;100646.69;5035991;28;20539;-67
2022/05/30 07:43:54;;;;;;;3.20;1.70;;;;;;;12.31;84.77;100643.31;5035872;28;20500;-67
2022/05/30 07:46:22;;;;;;;3.60;2.23;;;;;;;12.42;85.95;100645.75;5035905;28;20443;-67
2022/05/30 07:48:49;;;;;;;6.70;2.30;;;;;;;12.50;86.08;100645.00;5035773;28;20805;-67
2022/05/30 07:51:16;;;;;;;3.70;1.97;;;;;;;12.41;85.39;100647.66;5035712;28;20470;-69
2022/05/30 07:53:45;;;;;;;2.83;2.20;;;;;;;12.57;84.97;100646.16;5035639;28;20483;-70
2022/05/30 07:56:13;;;;;;;1.90;1.60;;;;;;;12.77;84.17;100644.00;5035658;28;20990;-70
2022/05/30 07:58:40;;;;;;;3.53;2.00;;;;;;;12.89;83.94;100657.78;5035631;28;20549;-69
2022/05/30 08:01:12;;;;;;;3.73;2.20;;;;;;;12.90;82.44;100669.47;5035173;28;20925;-67
2022/05/30 08:03:40;;;;;;;4.50;1.87;;;;;;;12.93;80.63;100677.00;5035552;28;20423;-70
2022/05/30 08:06:09;;;;;;;1.77;1.40;;;;;;;12.99;80.48;100673.81;5035513;28;20447;-69
2022/05/30 08:08:35;;;;;;;5.63;2.20;;;;;;;13.08;80.99;100677.38;5035406;28;20443;-70
2022/05/30 08:11:01;;;;;;;2.83;1.33;;;;;;;13.27;80.53;100688.00;5035399;28;20467;-70
2022/05/30 08:13:28;;;;;;;3.37;1.40;;;;;;;13.42;79.21;100675.09;5035322;28;20487;-68
2022/05/30 08:15:54;;;;;;;1.60;0.90;;;;;;;13.45;76.78;100686.13;5035020;28;20443;-67
2022/05/30 08:18:21;;;;;;;6.87;1.80;;;;;;;13.58;80.56;100678.94;5035577;28;20447;-67
2022/05/30 08:20:49;;;;;;;2.50;1.83;;;;;;;13.72;79.15;100695.09;5035210;28;20513;-67
2022/05/30 08:23:17;;;;;;;2.03;1.30;;;;;;;13.76;75.13;100685.97;5035255;28;20446;-66
2022/05/30 08:25:45;;;;;;;1.30;1.00;;;;;;;13.87;76.97;100692.72;5034825;28;20542;-67
2022/05/30 08:28:12;;;;;;;3.37;1.30;;;;;;;13.97;75.94;100688.88;5034917;28;20801;-66
2022/05/30 08:30:39;;;;;;;3.17;1.67;;;;;;;14.25;75.46;100702.16;5035047;28;20485;-66
2022/05/30 08:33:10;;;;;;;6.73;1.43;;;;;;;14.32;74.78;100697.00;5034942;28;20526;-67
2022/05/30 08:35:37;;;;;;;3.87;1.50;;;;;;;14.20;73.68;100694.94;5035030;28;20459;-67
2022/05/30 08:38:05;;;;;;;3.30;1.23;;;;;;;14.34;74.48;100695.59;5034632;28;20450;-70
2022/05/30 08:43:25;;;;;;;4.43;1.30;;;;;;;14.58;68.89;100699.72;5034689;28;20411;-69
2022/05/30 08:45:58;;;;;;;2.13;1.20;;;;;;;14.45;71.60;100692.50;5034690;28;20435;-69
2022/05/30 08:48:40;;;;;;;2.10;1.17;;;;;;;14.42;71.89;100693.94;5034913;28;20451;-69
2022/05/30 08:51:21;;;;;;;3.43;1.27;;;;;;;14.28;71.24;100690.59;5034564;28;20499;-66
2022/05/30 08:54:03;;;;;;;1.30;1.03;;;;;;;14.21;71.48;100693.00;5034785;28;20467;-66
2022/05/30 08:56:34;;;;;;;9.43;1.63;;;;;;;14.16;73.18;100693.97;5034201;28;20808;-66
2022/05/30 08:59:18;;;;;;;5.27;1.93;;;;;;;14.18;71.83;100694.47;5034582;28;20431;-67
2022/05/30 09:01:50;;;;;;;1.00;0.90;;;;;;;14.16;70.71;100696.69;5034121;28;20479;-67
2022/05/30 09:04:24;;;;;;;2.40;1.27;;;;;;;14.10;71.32;100689.84;5034732;28;20509;-67
2022/05/30 09:06:56;;;;;;;1.67;0.97;;;;;;;14.12;73.38;100682.13;5034382;28;20424;-67
2022/05/30 09:09:28;;;;;;;2.33;1.33;;;;;;;14.27;73.84;100700.72;5034403;28;20518;-67
2022/05/30 09:11:59;;;;;;;1.80;1.13;;;;;;;14.38;73.14;100701.16;5034153;28;20463;-67
2022/05/30 09:14:33;;;;;;;4.43;1.40;;;;;;;14.52;72.86;100690.09;5034253;28;20542;-67
2022/05/30 09:17:04;;;;;;;1.07;0.80;;;;;;;14.73;70.27;100690.19;5034550;28;20427;-66
2022/05/30 09:19:31;;;;;;;2.37;1.10;;;;;;;14.86;70.25;100684.53;5034146;28;20431;-67
2022/05/30 09:22:01;;;;;;;4.80;1.90;;;;;;;15.13;69.46;100685.22;5033957;28;20801;-67
2022/05/30 09:24:31;;;;;;;4.20;1.50;;;;;;;15.10;68.05;100683.94;5034040;28;20447;-67
2022/05/30 09:26:58;;;;;;;1.63;1.23;;;;;;;14.99;68.29;100681.91;5034090;28;20442;-67
2022/05/30 09:29:35;;;;;;;2.37;1.13;;;;;;;14.95;68.05;100680.97;5033880;28;20469;-67
2022/05/30 09:32:12;;;;;;;2.87;0.87;;;;;;;14.93;67.41;100677.78;5033831;28;20434;-68
2022/05/30 09:34:45;;;;;;;0.90;0.60;;;;;;;14.93;67.85;100677.78;5033970;28;20431;-67
2022/05/30 09:37:24;;;;;;;1.10;0.70;;;;;;;15.20;66.56;100682.78;5033903;28;20787;-67
2022/05/30 09:39:52;;;;;;;2.80;0.83;;;;;;;15.42;66.04;100672.69;5033765;28;20438;-67
2022/05/30 09:42:27;;;;;;;2.37;0.97;;;;;;;15.61;63.81;100682.03;5033823;28;20446;-67
2022/05/30 09:44:56;;;;;;;2.00;1.13;;;;;;;15.44;60.76;100679.41;5033717;28;20427;-67
2022/05/30 09:47:23;;;;;;;1.27;1.00;;;;;;;15.47;61.44;100677.97;5033537;28;20450;-66
2022/05/30 09:49:51;;;;;;;1.40;0.87;;;;;;;15.30;62.54;100665.22;5033002;28;20443;-67
2022/05/30 09:52:27;;;;;;;4.60;1.20;;;;;;;15.36;62.89;100678.34;5033360;28;20431;-67
2022/05/30 09:54:56;;;;;;;1.57;0.80;;;;;;;15.33;62.61;100679.00;5033420;28;20435;-67
2022/05/30 09:57:26;;;;;;;1.10;0.70;;;;;;;15.36;63.02;100667.44;5033551;28;20447;-67
2022/05/30 09:59:55;;;;;;;2.07;1.20;;;;;;;15.38;59.95;100673.34;5033190;28;20438;-67
2022/05/30 10:02:24;;;;;;;1.90;0.90;;;;;;;15.39;60.83;100674.94;5033400;28;20420;-67
2022/05/30 10:04:57;;;;;;;0.93;0.70;;;;;;;15.65;59.97;100671.25;5033165;28;20960;-67
2022/05/30 10:07:24;;;;;;;2.27;0.80;;;;;;;15.98;59.51;100667.78;5033410;28;20581;-68
2022/05/30 10:09:59;;;;;;;1.10;0.77;;;;;;;16.25;58.21;100680.09;5033464;28;20442;-66
2022/05/30 10:12:36;;;;;;;1.00;0.50;;;;;;;16.31;57.23;100676.00;5033269;28;20477;-67
2022/05/30 10:15:22;;;;;;;1.43;0.73;;;;;;;15.93;56.37;100678.91;5033287;28;20481;-67
2022/05/30 10:17:50;;;;;;;2.60;0.93;;;;;;;15.79;56.85;100682.72;5033296;28;20446;-67
2022/05/30 10:20:26;;;;;;;1.00;0.63;;;;;;;15.64;56.83;100678.66;5033136;28;20466;-67
2022/05/30 10:29:10;;;;;;;1.67;0.70;;;;;;;15.55;55.19;100685.28;4991479;28;20804;-66
2022/05/30 10:31:44;;;;;;;1.63;1.00;;;;;;;15.59;55.53;100694.41;4991509;28;20469;-67
2022/05/30 10:34:28;;;;;;;1.23;0.60;;;;;;;15.88;57.05;100680.72;5013395;28;20487;-68
2022/05/30 10:37:09;;;;;;;3.20;1.00;;;;;;;16.15;57.70;100679.34;5033071;28;20431;-68
2022/05/30 10:39:53;;;;;;;1.67;0.93;;;;;;;16.45;55.83;100683.88;5032895;28;20434;-66
2022/05/30 10:42:28;;;;;;;1.43;0.60;;;;;;;16.69;55.32;100685.84;5032909;28;20427;-67
2022/05/30 10:45:01;;;;;;;1.93;0.83;;;;;;;16.67;55.19;100683.47;5033000;28;20427;-68
2022/05/30 10:47:36;;;;;;;1.20;0.70;;;;;;;16.64;55.57;100682.22;5033046;28;20431;-66
2022/05/30 10:50:08;;;;;;;4.00;0.67;;;;;;;16.67;55.90;100685.41;5032776;28;20508;-66
2022/05/30 10:52:40;;;;;;;1.30;0.90;;;;;;;16.56;54.54;100688.59;5032919;28;20434;-67
2022/05/30 10:55:13;;;;;;;2.27;0.83;;;;;;;16.52;56.04;100689.59;5032855;28;20431;-67
2022/05/30 10:57:44;;;;;;;2.40;0.80;;;;;;;16.45;56.51;100681.94;5033013;28;20434;-68
2022/05/30 11:00:14;;;;;;;1.43;0.90;;;;;;;16.42;56.68;100690.03;5032856;28;20482;-68
2022/05/30 11:02:51;;;;;;;1.00;0.60;;;;;;;16.47;56.63;100684.34;5035456;28;20438;-68
2022/05/30 11:05:22;;;;;;;0.90;0.70;;;;;;;16.39;57.42;100692.31;5036684;28;20524;-68
2022/05/30 11:07:53;;;;;;;1.10;0.80;;;;;;;16.18;57.88;100677.88;5036613;28;20459;-68
2022/05/30 11:10:31;;;;;;;2.30;0.80;;;;;;;16.24;58.64;100690.19;5036603;28;20532;-67
2022/05/30 11:13:05;;;;;;;1.77;0.80;;;;;;;16.50;56.81;100687.19;5036428;28;20481;-69
2022/05/30 11:15:37;;;;;;;1.47;0.80;;;;;;;16.56;56.28;100694.06;5036762;28;20537;-68
2022/05/30 11:18:10;;;;;;;1.27;0.70;;;;;;;16.64;56.74;100689.59;5036583;28;20419;-68
2022/05/30 11:20:44;;;;;;;2.07;1.03;;;;;;;16.80;56.99;100692.53;5036445;28;20493;-67
2022/05/30 11:23:11;;;;;;;2.37;0.87;;;;;;;16.89;55.10;100696.75;5036543;28;20834;-68
2022/05/30 11:26:00;;;;;;;1.53;1.03;;;;;;;16.93;54.63;100707.03;5035986;28;21048;-68
2022/05/30 11:28:43;;;;;;;1.40;0.80;;;;;;;16.63;55.00;100698.97;5036232;28;20440;-67
2022/05/30 11:31:16;;;;;;;1.30;0.80;;;;;;;16.90;56.32;100703.03;5036105;28;20459;-68
2022/05/30 11:34:13;;;;;;;1.80;0.53;;;;;;;17.27;54.10;100701.09;5036057;28;20525;-68
2022/05/30 11:37:06;;;;;;;2.23;0.93;;;;;;;17.54;53.23;100707.81;5035064;28;20497;-68
2022/05/30 11:39:50;;;;;;;1.97;1.03;;;;;;;17.48;54.67;100702.88;5036095;28;20443;-69
2022/05/30 11:42:25;;;;;;;2.40;0.97;;;;;;;17.57;53.11;100703.56;5036191;28;20438;-68
2022/05/30 11:44:59;;;;;;;1.53;0.90;;;;;;;17.56;51.58;100712.94;5036014;28;20440;-68
2022/05/30 11:47:31;;;;;;;1.47;1.10;;;;;;;17.95;50.05;100708.63;5035598;28;20922;-68
2022/05/30 11:50:08;;;;;;;0.80;0.57;;;;;;;18.53;49.78;100700.84;5035795;28;20838;-68
2022/05/30 11:52:46;;;;;;;1.07;0.90;;;;;;;18.69;48.47;100703.63;5035841;28;20474;-67